This is the latest recevied weather packets stored in our database for station/object IU7LMH-13. If no packets are shown the sender has not sent any weather packets the latest 10 day(s).
| Time | Temp. | Humidity | Pressure | Rain* | Wind** | Luminosity | Snow |
|---|---|---|---|---|---|---|---|
| 1777843777 | 15.56° C | 63% | 1018 hPa | 0 mm | - | - | - |
| 1777843543 | 16.11° C | 62% | 1018 hPa | 0 mm | - | - | - |
| 1777842458 | 16.11° C | 61% | 1017.8 hPa | 0 mm | - | - | - |
| 1777842098 | 16.11° C | 62% | 1017.9 hPa | 0 mm | - | - | - |
| 1777841978 | 16.11° C | 62% | 1017.8 hPa | 0 mm | - | - | - |
| 1777841856 | 16.11° C | 62% | 1017.8 hPa | 0 mm | - | - | - |
| 1777841743 | 16.11° C | 62% | 1017.8 hPa | 0 mm | - | - | - |
| 1777841497 | 16.11° C | 62% | 1017.8 hPa | 0 mm | - | - | - |
| 1777841019 | 15° C | 66% | 1017.7 hPa | 0 mm | - | - | - |
| 1777840657 | 13.89° C | 69% | 1017.9 hPa | 0 mm | - | - | - |
| 1777840418 | 13.89° C | 71% | 1017.7 hPa | 0 mm | - | - | - |
| 1777839698 | 13.33° C | 76% | 1017.8 hPa | 0 mm | - | - | - |
| 1777839217 | 13.33° C | 76% | 1017.9 hPa | 0 mm | - | - | - |
| 1777838980 | 13.89° C | 75% | 1018.2 hPa | 0 mm | - | - | - |
| 1777838145 | 15° C | 74% | 1017.9 hPa | 0 mm | - | - | - |
| 1777836817 | 15.56° C | 72% | 1017.7 hPa | 0 mm | - | - | - |
| 1777835618 | 15.56° C | 71% | 1017.5 hPa | 0 mm | - | - | - |
| 1777834057 | 16.67° C | 68% | 1017.5 hPa | 0 mm | - | - | - |
| 1777833341 | 16.67° C | 67% | 1017.5 hPa | 0 mm | - | - | - |
| 1777833098 | 17.22° C | 66% | 1017.4 hPa | 0 mm | - | - | - |
| 1777832377 | 17.78° C | 63% | 1017.4 hPa | 0 mm | - | - | - |
| 1777832258 | 17.78° C | 62% | 1017.2 hPa | 0 mm | - | - | - |
| 1777832016 | 17.78° C | 62% | 1017.5 hPa | 0 mm | - | - | - |
| 1777831542 | 18.33° C | 61% | 1017.3 hPa | 0 mm | - | - | - |
| 1777830217 | 18.89° C | 57% | 1017.3 hPa | 0 mm | - | - | - |
* Rain latest hour (hover to see other rain measurements)
** Current wind speed in m/s (hover to see current wind gust speed)